Time;durP1;ratioP1;P1;durP2;ratioP2;P2;SDS_P1;SDS_P2;PMS_P1;PMS_P2;Temp;Humidity;BMP_temperature;BMP_pressure;BME280_temperature;BME280_humidity;BME280_pressure;Samples;Min_cycle;Max_cycle;Signal;HPM_P1;HPM_P2
2022/12/20 00:00:54;;;;;;;25.63;21.13;;;;;;;-3.03;100.00;97787.75;5028071;28;20230;-72
2022/12/20 00:03:22;;;;;;;27.43;21.53;;;;;;;-2.98;100.00;97792.69;5013061;28;20361;-74
2022/12/20 00:05:50;;;;;;;26.20;23.27;;;;;;;-2.93;100.00;97794.09;5027826;28;20203;-73
2022/12/20 00:08:17;;;;;;;26.90;22.47;;;;;;;-2.88;100.00;97795.59;4992490;28;20211;-74
2022/12/20 00:10:46;;;;;;;25.07;21.60;;;;;;;-2.87;100.00;97798.13;5028958;28;20261;-74
2022/12/20 00:13:14;;;;;;;26.60;21.20;;;;;;;-2.84;100.00;97804.88;5027087;28;20756;-72
2022/12/20 00:15:41;;;;;;;26.10;21.20;;;;;;;-2.84;100.00;97804.88;5029510;28;20223;-73
2022/12/20 00:18:09;;;;;;;27.77;21.20;;;;;;;-2.75;100.00;97794.03;5010749;28;20225;-72
2022/12/20 00:20:37;;;;;;;27.23;22.10;;;;;;;-2.71;100.00;97794.66;5028509;28;20211;-74
2022/12/20 00:23:05;;;;;;;31.17;22.47;;;;;;;-2.69;100.00;97792.81;5004178;28;20405;-73
2022/12/20 00:25:33;;;;;;;26.10;21.53;;;;;;;-2.73;100.00;97784.38;5021539;28;20813;-74
2022/12/20 00:28:03;;;;;;;26.53;23.20;;;;;;;-2.71;100.00;97792.06;5029294;28;20777;-72
2022/12/20 00:30:30;;;;;;;24.67;22.03;;;;;;;-2.79;100.00;97790.75;5025159;28;20283;-73
2022/12/20 00:32:58;;;;;;;24.30;21.47;;;;;;;-2.85;100.00;97792.84;5023553;28;20800;-72
2022/12/20 00:35:26;;;;;;;26.00;21.20;;;;;;;-2.92;100.00;97794.94;5017599;28;20381;-74
2022/12/20 00:37:54;;;;;;;27.07;22.03;;;;;;;-3.01;100.00;97782.50;5028373;28;20737;-74
2022/12/20 00:40:21;;;;;;;26.90;21.90;;;;;;;-2.95;100.00;97785.56;4995971;28;20549;-74
2022/12/20 00:42:49;;;;;;;26.73;23.43;;;;;;;-2.95;100.00;97790.75;5030660;28;20653;-74
2022/12/20 00:45:18;;;;;;;29.43;23.17;;;;;;;-2.96;100.00;97785.66;5025273;28;20227;-73
2022/12/20 00:47:46;;;;;;;27.60;21.57;;;;;;;-2.86;100.00;97776.44;5030030;28;20218;-74
2022/12/20 00:50:13;;;;;;;29.00;22.43;;;;;;;-2.84;100.00;97778.94;5008053;28;20204;-73
2022/12/20 00:52:41;;;;;;;28.17;23.17;;;;;;;-2.93;100.00;97782.91;5023776;28;20767;-74
2022/12/20 00:55:09;;;;;;;27.03;22.77;;;;;;;-2.95;100.00;97780.38;4993807;28;20244;-72
2022/12/20 00:57:39;;;;;;;30.40;24.00;;;;;;;-2.94;100.00;97782.06;5010672;28;20583;-72
2022/12/20 01:00:09;;;;;;;25.90;23.03;;;;;;;-2.90;100.00;97772.34;5010953;28;20983;-74
2022/12/20 01:02:38;;;;;;;26.30;23.03;;;;;;;-2.99;100.00;97786.66;5010020;28;20249;-72
2022/12/20 01:05:06;;;;;;;29.60;24.10;;;;;;;-3.06;100.00;97782.72;5028516;28;20219;-73
2022/12/20 01:07:34;;;;;;;28.53;23.13;;;;;;;-3.08;100.00;97780.22;5022714;28;20249;-73
2022/12/20 01:10:02;;;;;;;30.53;24.03;;;;;;;-3.13;100.00;97778.81;5026789;28;20292;-74
2022/12/20 01:12:29;;;;;;;30.47;23.53;;;;;;;-3.10;100.00;97783.81;5025995;28;20541;-72
2022/12/20 01:14:57;;;;;;;27.90;23.33;;;;;;;-3.12;100.00;97780.47;4986645;28;20907;-74
2022/12/20 01:17:24;;;;;;;28.73;22.83;;;;;;;-3.09;100.00;97783.72;5028175;28;20210;-72
2022/12/20 01:19:53;;;;;;;28.63;21.97;;;;;;;-3.05;100.00;97776.63;5027739;28;20290;-74
2022/12/20 01:22:21;;;;;;;29.33;22.47;;;;;;;-2.98;100.00;97782.31;5026393;28;20227;-73
2022/12/20 01:24:49;;;;;;;26.60;21.07;;;;;;;-2.92;100.00;97776.78;5025708;28;20336;-74
2022/12/20 01:27:17;;;;;;;27.60;22.27;;;;;;;-2.89;100.00;97774.03;5028936;28;20784;-74
2022/12/20 01:29:44;;;;;;;28.47;21.93;;;;;;;-2.93;100.00;97768.16;4990556;28;20208;-74
2022/12/20 01:32:12;;;;;;;26.67;22.40;;;;;;;-2.79;100.00;97766.59;5027641;28;20667;-73
2022/12/20 01:34:40;;;;;;;24.97;21.23;;;;;;;-2.80;100.00;97768.31;5022159;28;20564;-71
2022/12/20 01:37:09;;;;;;;23.77;21.03;;;;;;;-2.89;100.00;97773.19;5027474;28;20199;-72
2022/12/20 01:39:37;;;;;;;23.67;19.73;;;;;;;-2.86;100.00;97768.66;5025012;28;20204;-71
2022/12/20 01:42:05;;;;;;;27.67;22.83;;;;;;;-2.98;100.00;97775.38;5026426;28;20758;-72
2022/12/20 01:44:56;;;;;;;27.30;20.97;;;;;;;-2.97;100.00;97773.63;5002521;28;20686;-71
2022/12/20 01:47:25;;;;;;;28.63;22.33;;;;;;;-3.01;100.00;97767.75;5023050;28;20204;-71
2022/12/20 01:49:54;;;;;;;27.87;21.87;;;;;;;-3.06;100.00;97754.22;5026666;28;20687;-75
2022/12/20 01:52:28;;;;;;;26.17;21.83;;;;;;;-3.07;100.00;97752.53;5026975;28;20207;-73
2022/12/20 01:55:00;;;;;;;28.27;21.87;;;;;;;-3.18;100.00;97740.16;5025454;28;20478;-72
2022/12/20 01:57:33;;;;;;;29.30;21.33;;;;;;;-3.28;100.00;97729.44;5025466;28;20210;-72
2022/12/20 02:00:01;;;;;;;28.87;22.30;;;;;;;-3.28;100.00;97739.81;4992103;28;20457;-74
2022/12/20 02:02:29;;;;;;;24.30;20.83;;;;;;;-3.18;100.00;97753.13;5025232;28;20202;-72
2022/12/20 02:04:57;;;;;;;27.27;21.00;;;;;;;-3.14;100.00;97741.66;5025380;28;20223;-74
2022/12/20 02:07:28;;;;;;;25.60;20.27;;;;;;;-3.02;100.00;97745.34;5026211;28;20257;-72
2022/12/20 02:09:56;;;;;;;24.30;19.63;;;;;;;-3.04;100.00;97744.59;5024074;28;20378;-74
2022/12/20 02:12:25;;;;;;;27.03;20.23;;;;;;;-2.98;100.00;97746.03;5023398;28;20210;-72
2022/12/20 02:15:06;;;;;;;25.60;21.23;;;;;;;-2.95;100.00;97731.09;5022990;28;20261;-72
2022/12/20 02:17:45;;;;;;;30.17;21.80;;;;;;;-3.06;100.00;97736.88;4994027;28;20211;-72
2022/12/20 02:20:29;;;;;;;25.47;21.37;;;;;;;-2.98;100.00;97733.88;5025835;28;20203;-74
2022/12/20 02:23:13;;;;;;;26.20;21.83;;;;;;;-2.92;100.00;97745.69;5025359;28;20211;-74
2022/12/20 02:25:49;;;;;;;25.40;20.80;;;;;;;-2.91;100.00;97742.16;5023166;28;20199;-72
2022/12/20 02:28:31;;;;;;;28.57;21.67;;;;;;;-2.89;100.00;97744.66;5028697;28;20555;-72
2022/12/20 02:31:04;;;;;;;29.70;21.40;;;;;;;-2.93;100.00;97726.66;5023497;28;20395;-75
2022/12/20 02:33:32;;;;;;;23.63;19.67;;;;;;;-2.91;100.00;97726.59;4991536;28;20340;-72
2022/12/20 02:35:59;;;;;;;25.67;20.10;;;;;;;-2.99;100.00;97728.78;5022451;28;20223;-72
2022/12/20 02:38:30;;;;;;;24.97;21.03;;;;;;;-3.00;100.00;97729.72;5014492;28;20462;-73
2022/12/20 02:40:59;;;;;;;28.07;21.23;;;;;;;-2.97;100.00;97720.00;5028536;28;20297;-73
2022/12/20 02:46:15;;;;;;;25.43;21.23;;;;;;;-3.16;100.00;97704.63;5020583;28;20211;-72
2022/12/20 02:48:43;;;;;;;30.77;22.30;;;;;;;-3.28;100.00;97705.31;4995139;28;20460;-73
2022/12/20 02:51:12;;;;;;;26.47;21.47;;;;;;;-3.28;100.00;97708.72;5020699;28;20559;-71
2022/12/20 02:53:40;;;;;;;25.13;20.47;;;;;;;-3.27;100.00;97725.13;5031010;28;20234;-73
2022/12/20 02:56:13;;;;;;;32.03;20.57;;;;;;;-3.28;100.00;97726.88;5027312;28;20359;-72
2022/12/20 02:58:44;;;;;;;27.23;21.50;;;;;;;-3.25;100.00;97738.84;5031132;28;20445;-72
2022/12/20 03:01:16;;;;;;;23.43;20.50;;;;;;;-3.25;100.00;97731.06;5026910;28;20199;-71
2022/12/20 03:03:44;;;;;;;28.83;22.33;;;;;;;-3.34;100.00;97729.78;4992004;28;20814;-73
2022/12/20 03:06:12;;;;;;;24.73;20.97;;;;;;;-3.40;100.00;97720.63;4984780;28;20566;-72
2022/12/20 03:08:40;;;;;;;24.87;22.27;;;;;;;-3.36;100.00;97729.88;5013951;28;20346;-71
2022/12/20 03:11:08;;;;;;;26.63;21.93;;;;;;;-3.39;100.00;97726.63;5028833;28;20389;-73
2022/12/20 03:13:35;;;;;;;27.90;22.77;;;;;;;-3.37;100.00;97712.66;5014512;28;20786;-75
2022/12/20 03:16:03;;;;;;;31.27;22.57;;;;;;;-3.33;100.00;97715.09;5025636;28;20330;-74
2022/12/20 03:18:32;;;;;;;26.40;20.93;;;;;;;-3.27;100.00;97702.63;5028721;28;20207;-74
2022/12/20 03:20:59;;;;;;;24.97;20.67;;;;;;;-3.24;100.00;97701.63;4990998;28;20208;-73
2022/12/20 03:23:27;;;;;;;29.00;22.63;;;;;;;-3.36;100.00;97687.59;5027036;28;20227;-74
2022/12/20 03:25:55;;;;;;;29.13;23.20;;;;;;;-3.32;100.00;97690.84;5027914;28;20200;-72
2022/12/20 03:28:22;;;;;;;28.50;22.53;;;;;;;-3.32;100.00;97704.63;5015018;28;20710;-72
2022/12/20 03:30:50;;;;;;;27.23;22.10;;;;;;;-3.32;100.00;97696.84;5022319;28;20200;-73
2022/12/20 03:33:18;;;;;;;27.87;22.87;;;;;;;-3.43;100.00;97691.44;5029365;28;20258;-74
2022/12/20 03:35:49;;;;;;;26.23;21.27;;;;;;;-3.42;100.00;97706.06;5011626;28;20659;-72
2022/12/20 03:38:16;;;;;;;32.70;22.83;;;;;;;-3.36;100.00;97695.34;5020246;28;20478;-73
2022/12/20 03:40:44;;;;;;;32.97;24.13;;;;;;;-3.38;100.00;97679.06;5009586;28;20930;-72
2022/12/20 03:43:11;;;;;;;34.77;24.83;;;;;;;-3.36;100.00;97687.59;5029907;28;20461;-74
2022/12/20 03:45:39;;;;;;;33.43;23.77;;;;;;;-3.34;100.00;97688.34;5013505;28;20450;-71
2022/12/20 03:48:07;;;;;;;29.57;23.37;;;;;;;-3.33;100.00;97697.78;5026451;28;20543;-74
2022/12/20 03:50:36;;;;;;;32.00;24.57;;;;;;;-3.26;100.00;97698.28;5021000;28;20442;-72
2022/12/20 03:53:05;;;;;;;30.33;23.13;;;;;;;-3.25;100.00;97700.78;4982191;28;21008;-70
2022/12/20 03:55:32;;;;;;;29.17;23.50;;;;;;;-3.20;100.00;97696.19;5025330;28;20199;-71
2022/12/20 03:58:00;;;;;;;31.67;24.07;;;;;;;-3.25;100.00;97687.81;5030377;28;20231;-74
2022/12/20 04:00:28;;;;;;;30.60;24.43;;;;;;;-3.27;100.00;97681.06;5008267;28;21174;-73
2022/12/20 04:02:55;;;;;;;27.70;22.70;;;;;;;-3.24;100.00;97697.25;5008289;28;20678;-74
2022/12/20 04:05:23;;;;;;;34.53;25.00;;;;;;;-3.19;100.00;97694.44;5020978;28;20647;-74
2022/12/20 04:07:51;;;;;;;32.57;24.57;;;;;;;-3.16;100.00;97701.22;4985832;28;20212;-75
2022/12/20 04:10:20;;;;;;;31.27;23.13;;;;;;;-3.07;100.00;97703.28;5011771;28;21055;-72
2022/12/20 04:12:47;;;;;;;29.03;22.07;;;;;;;-2.94;100.00;97700.84;5029987;28;20233;-72
2022/12/20 04:15:15;;;;;;;33.17;25.17;;;;;;;-3.12;100.00;97694.94;5007349;28;20242;-72
2022/12/20 04:17:43;;;;;;;34.27;24.60;;;;;;;-3.18;100.00;97690.91;5027892;28;20555;-74
2022/12/20 04:20:19;;;;;;;34.63;25.23;;;;;;;-3.24;100.00;97676.53;5028158;28;20567;-71
2022/12/20 04:22:47;;;;;;;33.17;24.37;;;;;;;-3.31;100.00;97664.00;5027685;28;20482;-73
2022/12/20 04:25:16;;;;;;;31.83;25.23;;;;;;;-3.28;100.00;97663.84;4969436;28;20253;-73
2022/12/20 04:27:45;;;;;;;29.63;23.83;;;;;;;-3.29;100.00;97668.19;5030100;28;20200;-72
2022/12/20 04:30:14;;;;;;;35.87;24.90;;;;;;;-3.28;100.00;97661.25;5012546;28;20200;-70
2022/12/20 04:32:41;;;;;;;32.27;25.87;;;;;;;-3.23;100.00;97661.81;5027840;28;21272;-73
2022/12/20 04:35:10;;;;;;;38.70;25.53;;;;;;;-3.28;100.00;97654.28;5027162;28;20235;-73
2022/12/20 04:37:37;;;;;;;32.00;24.47;;;;;;;-3.27;100.00;97645.59;5031408;28;20227;-75
2022/12/20 04:40:06;;;;;;;36.83;26.63;;;;;;;-3.27;100.00;97655.16;4994089;28;20450;-72
2022/12/20 04:42:34;;;;;;;30.27;24.53;;;;;;;-3.24;100.00;97650.59;5028573;28;20681;-74
2022/12/20 04:45:03;;;;;;;30.30;24.60;;;;;;;-3.25;100.00;97651.53;5024468;28;20741;-73
2022/12/20 04:47:30;;;;;;;32.43;25.27;;;;;;;-3.19;100.00;97650.34;5018520;28;20238;-74
2022/12/20 04:49:58;;;;;;;34.47;26.00;;;;;;;-3.17;100.00;97655.47;5030660;28;20961;-73
2022/12/20 04:55:15;;;;;;;32.13;24.53;;;;;;;-3.04;100.00;97672.00;4991009;28;20231;-73
2022/12/20 04:57:42;;;;;;;34.80;25.77;;;;;;;-2.97;100.00;97677.69;5026500;28;20940;-73
2022/12/20 05:00:14;;;;;;;35.23;24.63;;;;;;;-2.89;100.00;97670.28;5029290;28;20199;-72
2022/12/20 05:02:41;;;;;;;32.00;23.07;;;;;;;-2.83;100.00;97666.53;5007064;28;20203;-74
2022/12/20 05:05:09;;;;;;;30.63;23.50;;;;;;;-2.82;100.00;97666.41;5027670;28;20230;-74
2022/12/20 05:07:37;;;;;;;29.27;23.00;;;;;;;-2.73;100.00;97675.44;5025173;28;20199;-72
2022/12/20 05:10:06;;;;;;;29.37;23.23;;;;;;;-2.69;100.00;97676.94;4985823;28;20216;-73
2022/12/20 05:12:33;;;;;;;29.63;24.50;;;;;;;-2.62;100.00;97673.06;4977338;28;20827;-73
2022/12/20 05:15:01;;;;;;;33.23;22.77;;;;;;;-2.60;100.00;97661.75;5012302;28;20875;-72
2022/12/20 05:17:30;;;;;;;28.60;21.43;;;;;;;-2.58;100.00;97646.94;5027053;28;20745;-71
2022/12/20 05:19:58;;;;;;;26.27;22.33;;;;;;;-2.61;100.00;97645.38;5014829;28;20216;-69
2022/12/20 05:27:57;;;;;;;26.00;20.73;;;;;;;-2.57;100.00;97644.25;4984997;28;22495;-70
2022/12/20 05:30:25;;;;;;;26.93;21.63;;;;;;;-2.55;100.00;97654.53;5027527;28;20219;-70
2022/12/20 05:32:54;;;;;;;27.93;22.87;;;;;;;-2.57;100.00;97658.97;5026877;28;20207;-69
2022/12/20 05:35:21;;;;;;;27.40;21.30;;;;;;;-2.56;100.00;97661.50;5014726;28;20441;-72
2022/12/20 05:37:49;;;;;;;29.37;21.50;;;;;;;-2.53;100.00;97665.66;5022350;28;20446;-71
2022/12/20 05:40:17;;;;;;;30.93;23.93;;;;;;;-2.57;100.00;97665.00;5030249;28;20207;-72
2022/12/20 05:42:45;;;;;;;27.03;21.03;;;;;;;-2.51;100.00;97656.88;5026387;28;20813;-71
2022/12/20 05:45:12;;;;;;;31.90;23.07;;;;;;;-2.53;100.00;97644.88;4980276;28;20761;-71
2022/12/20 05:47:40;;;;;;;27.97;21.83;;;;;;;-2.42;100.00;97634.72;5023454;28;20602;-73
2022/12/20 05:50:10;;;;;;;31.90;23.63;;;;;;;-2.54;100.00;97612.94;5013307;28;20404;-73
2022/12/20 05:52:45;;;;;;;29.37;22.20;;;;;;;-2.64;100.00;97617.81;5023318;28;20204;-72
2022/12/20 05:55:12;;;;;;;29.67;21.63;;;;;;;-2.67;100.00;97638.75;5028210;28;20227;-72
2022/12/20 05:57:40;;;;;;;30.97;22.37;;;;;;;-2.56;100.00;97627.75;5028194;28;20534;-73
2022/12/20 06:00:09;;;;;;;26.87;21.03;;;;;;;-2.64;100.00;97623.00;4985598;28;20211;-72
2022/12/20 06:02:37;;;;;;;32.57;23.50;;;;;;;-2.60;100.00;97639.25;5026809;28;20207;-72
2022/12/20 06:05:05;;;;;;;28.37;22.07;;;;;;;-2.61;100.00;97650.56;5014774;28;20746;-72
2022/12/20 06:07:34;;;;;;;32.70;22.23;;;;;;;-2.60;100.00;97652.22;5024452;28;20859;-72
2022/12/20 06:10:02;;;;;;;32.00;22.07;;;;;;;-2.56;100.00;97655.44;5030177;28;20207;-71
2022/12/20 06:12:29;;;;;;;28.03;23.87;;;;;;;-2.55;100.00;97644.16;5025972;28;20195;-72
2022/12/20 06:14:57;;;;;;;30.17;21.90;;;;;;;-2.61;100.00;97640.16;4984743;28;20253;-72
2022/12/20 06:17:25;;;;;;;30.63;22.70;;;;;;;-2.69;100.00;97627.63;5021959;28;20234;-71
2022/12/20 06:19:52;;;;;;;27.67;22.73;;;;;;;-2.63;100.00;97642.03;5012794;28;21086;-71
2022/12/20 06:22:20;;;;;;;29.13;22.30;;;;;;;-2.66;100.00;97637.84;5027135;28;20214;-71
2022/12/20 06:24:49;;;;;;;30.93;23.07;;;;;;;-2.74;100.00;97631.41;5027462;28;20223;-72
2022/12/20 06:27:17;;;;;;;27.67;22.43;;;;;;;-2.74;100.00;97646.97;5031984;28;20713;-72
2022/12/20 06:29:50;;;;;;;30.90;23.93;;;;;;;-2.73;100.00;97648.66;5031052;28;20482;-73
2022/12/20 06:32:18;;;;;;;30.17;22.10;;;;;;;-2.73;100.00;97643.47;4988590;28;20267;-72
2022/12/20 06:34:46;;;;;;;31.80;22.43;;;;;;;-2.76;100.00;97639.31;5030757;28;20426;-73
2022/12/20 06:37:13;;;;;;;30.13;22.87;;;;;;;-2.74;100.00;97642.66;5012883;28;20758;-72
2022/12/20 06:39:41;;;;;;;29.63;24.80;;;;;;;-2.77;100.00;97620.31;5030116;28;20536;-73
2022/12/20 06:42:10;;;;;;;32.70;25.67;;;;;;;-2.86;100.00;97607.88;5032283;28;20208;-72
2022/12/20 06:44:37;;;;;;;34.07;24.70;;;;;;;-2.86;100.00;97617.41;5030051;28;20220;-73
2022/12/20 06:47:05;;;;;;;31.37;24.43;;;;;;;-2.87;100.00;97600.16;4987913;28;20691;-71
2022/12/20 06:49:33;;;;;;;31.07;23.47;;;;;;;-2.83;100.00;97610.28;5029706;28;20294;-72
2022/12/20 06:52:00;;;;;;;31.13;23.80;;;;;;;-2.86;100.00;97607.88;5013091;28;20619;-72
2022/12/20 06:54:28;;;;;;;29.03;22.87;;;;;;;-2.87;100.00;97611.41;5030809;28;20710;-72
2022/12/20 06:56:55;;;;;;;32.43;25.30;;;;;;;-2.81;100.00;97607.63;5031454;28;20799;-72
2022/12/20 06:59:25;;;;;;;32.00;23.60;;;;;;;-2.82;100.00;97595.56;5031157;28;20227;-72
2022/12/20 07:01:53;;;;;;;35.43;25.00;;;;;;;-2.83;100.00;97601.69;4984791;28;20212;-73
2022/12/20 07:04:20;;;;;;;30.13;24.07;;;;;;;-2.76;100.00;97603.00;5031191;28;20723;-71
2022/12/20 07:06:48;;;;;;;33.10;23.73;;;;;;;-2.72;100.00;97604.47;5013800;28;20207;-73
2022/12/20 07:09:16;;;;;;;33.43;26.17;;;;;;;-2.71;100.00;97590.59;5031653;28;20522;-72
2022/12/20 07:11:44;;;;;;;31.93;25.07;;;;;;;-2.67;100.00;97588.63;5031515;28;20199;-72
2022/12/20 07:14:12;;;;;;;31.13;24.10;;;;;;;-2.68;100.00;97574.84;5032509;28;20721;-72
2022/12/20 07:16:42;;;;;;;30.30;23.87;;;;;;;-2.64;100.00;97594.47;4984170;28;21765;-73
2022/12/20 07:19:11;;;;;;;33.13;22.60;;;;;;;-2.58;100.00;97601.06;4977297;28;20642;-72
2022/12/20 07:21:39;;;;;;;32.77;24.90;;;;;;;-2.54;100.00;97599.97;5009795;28;20218;-73
2022/12/20 07:24:07;;;;;;;29.80;23.63;;;;;;;-2.48;100.00;97609.13;5012248;28;20224;-72
2022/12/20 07:26:35;;;;;;;28.83;22.53;;;;;;;-2.39;100.00;97625.91;5014398;28;20703;-71
2022/12/20 07:29:03;;;;;;;31.47;24.07;;;;;;;-2.37;100.00;97613.69;5010157;28;20253;-71
2022/12/20 07:31:31;;;;;;;33.13;23.27;;;;;;;-2.33;100.00;97604.78;5026773;28;20215;-73
2022/12/20 07:34:05;;;;;;;33.30;22.20;;;;;;;-2.26;100.00;97621.66;4996292;28;20677;-73
2022/12/20 07:36:34;;;;;;;30.40;23.37;;;;;;;-2.22;100.00;97633.53;5023426;28;20214;-73
2022/12/20 07:39:01;;;;;;;31.07;22.67;;;;;;;-2.23;100.00;97625.81;5025880;28;20224;-72
2022/12/20 07:41:29;;;;;;;27.63;21.90;;;;;;;-2.11;100.00;97629.44;5015846;28;20215;-74
2022/12/20 07:43:58;;;;;;;25.23;22.33;;;;;;;-2.15;100.00;97618.41;5010930;28;20231;-72
2022/12/20 07:46:25;;;;;;;28.93;22.10;;;;;;;-2.14;100.00;97630.44;5027342;28;20864;-74
2022/12/20 07:48:53;;;;;;;32.90;23.73;;;;;;;-2.10;100.00;97629.34;5029764;28;20200;-72
2022/12/20 07:51:24;;;;;;;31.23;22.83;;;;;;;-2.02;100.00;97625.47;4986353;28;20732;-73
2022/12/20 07:53:54;;;;;;;30.60;24.50;;;;;;;-2.03;100.00;97637.59;5028681;28;20238;-73
2022/12/20 07:56:22;;;;;;;34.20;23.00;;;;;;;-2.07;100.00;97638.72;5013684;28;20333;-73
2022/12/20 07:58:51;;;;;;;31.00;21.43;;;;;;;-1.88;100.00;97627.22;5027347;28;20614;-72
2022/12/20 08:01:20;;;;;;;29.43;24.67;;;;;;;-1.91;100.00;97630.81;5016941;28;20334;-72
2022/12/20 08:03:50;;;;;;;32.90;25.77;;;;;;;-2.04;100.00;97622.94;5030189;28;20619;-72
2022/12/20 08:06:18;;;;;;;34.73;26.70;;;;;;;-1.96;100.00;97632.88;4984166;28;20238;-74
2022/12/20 08:08:51;;;;;;;32.60;24.17;;;;;;;-1.99;100.00;97627.88;5028463;28;20572;-73
2022/12/20 08:11:20;;;;;;;30.90;22.40;;;;;;;-2.08;100.00;97622.31;5012839;28;20436;-73
2022/12/20 08:13:49;;;;;;;31.80;24.27;;;;;;;-2.06;100.00;97614.41;5027062;28;20232;-72
2022/12/20 08:16:24;;;;;;;28.97;22.83;;;;;;;-2.07;100.00;97607.56;5021041;28;20741;-73
2022/12/20 08:18:52;;;;;;;32.07;22.03;;;;;;;-2.06;100.00;97611.81;5029355;28;20223;-72
2022/12/20 08:21:19;;;;;;;32.20;21.90;;;;;;;-2.13;100.00;97611.34;4981425;28;21005;-71
2022/12/20 08:23:48;;;;;;;30.97;22.30;;;;;;;-2.01;100.00;97603.75;5027983;28;20314;-71
2022/12/20 08:26:16;;;;;;;33.37;22.50;;;;;;;-2.04;100.00;97613.41;5011557;28;20456;-72
2022/12/20 08:28:44;;;;;;;29.50;22.80;;;;;;;-2.05;100.00;97618.69;5029789;28;20711;-74
2022/12/20 08:31:12;;;;;;;28.83;22.77;;;;;;;-2.15;100.00;97613.22;5007597;28;20361;-75
2022/12/20 08:33:40;;;;;;;30.90;22.40;;;;;;;-2.10;100.00;97605.97;5031593;28;20321;-74
2022/12/20 08:36:09;;;;;;;30.70;23.33;;;;;;;-2.11;100.00;97603.47;5026494;28;20215;-72
2022/12/20 08:38:37;;;;;;;34.50;24.33;;;;;;;-2.14;100.00;97598.47;4985665;28;20227;-73
2022/12/20 08:41:09;;;;;;;31.37;23.07;;;;;;;-2.07;100.00;97595.41;5027326;28;20291;-72
2022/12/20 08:43:37;;;;;;;34.43;24.53;;;;;;;-2.06;100.00;97575.47;5012443;28;20231;-73
2022/12/20 08:46:05;;;;;;;32.57;23.13;;;;;;;-2.17;100.00;97578.72;5007152;28;20219;-73
2022/12/20 08:48:34;;;;;;;35.50;23.73;;;;;;;-2.07;100.00;97587.63;5030919;28;20209;-74
2022/12/20 08:51:03;;;;;;;33.70;23.00;;;;;;;-1.97;100.00;97580.09;5027791;28;20206;-73
2022/12/20 08:53:31;;;;;;;31.00;24.20;;;;;;;-1.87;100.00;97567.34;4985564;28;20235;-74
2022/12/20 08:56:04;;;;;;;31.00;24.17;;;;;;;-1.92;100.00;97559.84;5026063;28;20204;-73
2022/12/20 08:58:33;;;;;;;27.53;22.30;;;;;;;-1.80;100.00;97573.00;5009566;28;20231;-73
2022/12/20 09:01:01;;;;;;;32.30;22.93;;;;;;;-1.70;100.00;97562.88;5008058;28;20762;-73
2022/12/20 09:03:33;;;;;;;29.33;22.60;;;;;;;-1.74;100.00;97554.44;5030316;28;20314;-74
2022/12/20 09:06:02;;;;;;;30.47;24.53;;;;;;;-1.70;100.00;97558.50;5027671;28;20448;-71
2022/12/20 09:08:29;;;;;;;34.30;23.70;;;;;;;-1.65;100.00;97555.63;4987864;28;20215;-73
2022/12/20 09:11:05;;;;;;;32.70;22.00;;;;;;;-1.49;100.00;97550.28;5027658;28;20203;-72
2022/12/20 09:13:35;;;;;;;28.97;22.17;;;;;;;-1.44;100.00;97547.34;5029386;28;20231;-73
2022/12/20 09:16:10;;;;;;;29.47;22.27;;;;;;;-1.41;100.00;97550.59;4989858;28;20784;-73
2022/12/20 09:18:38;;;;;;;28.17;21.67;;;;;;;-1.47;100.00;97545.81;5028534;28;20212;-73
2022/12/20 09:21:06;;;;;;;28.17;22.47;;;;;;;-1.34;100.00;97548.41;5024966;28;20396;-72
2022/12/20 09:23:36;;;;;;;30.17;22.87;;;;;;;-1.26;100.00;97546.19;5030135;28;20232;-74
2022/12/20 09:26:05;;;;;;;29.07;21.87;;;;;;;-1.23;100.00;97538.16;4987337;28;20230;-74
2022/12/20 09:28:34;;;;;;;34.93;22.57;;;;;;;-1.15;100.00;97542.84;4975294;28;20216;-73
2022/12/20 09:31:03;;;;;;;30.17;22.07;;;;;;;-1.06;100.00;97544.00;5012913;28;20212;-75
2022/12/20 09:33:31;;;;;;;28.43;21.23;;;;;;;-1.14;100.00;97544.50;5028502;28;20686;-73
2022/12/20 09:35:59;;;;;;;27.70;21.73;;;;;;;-1.07;100.00;97551.00;5025310;28;20444;-75
2022/12/20 09:38:27;;;;;;;25.30;19.83;;;;;;;-1.12;100.00;97557.44;5010611;28;20214;-74
2022/12/20 09:40:59;;;;;;;24.67;20.07;;;;;;;-1.07;100.00;97556.19;5027889;28;20326;-74
2022/12/20 09:43:27;;;;;;;25.93;19.87;;;;;;;-0.89;100.00;97556.75;4984687;28;20513;-72
2022/12/20 09:45:58;;;;;;;24.50;20.90;;;;;;;-0.90;100.00;97556.84;5024454;28;20439;-74
2022/12/20 09:48:30;;;;;;;24.60;19.83;;;;;;;-0.74;100.00;97549.69;5028779;28;20216;-73
2022/12/20 09:51:06;;;;;;;24.77;21.03;;;;;;;-0.71;100.00;97553.81;5028235;28;20195;-73
2022/12/20 09:53:41;;;;;;;27.07;20.43;;;;;;;-0.49;100.00;97549.78;5011608;28;20257;-73
2022/12/20 09:56:13;;;;;;;24.70;19.57;;;;;;;-0.57;100.00;97544.22;5027677;28;20207;-74
2022/12/20 09:58:56;;;;;;;23.93;19.73;;;;;;;-0.40;100.00;97545.69;4983002;28;20485;-72
2022/12/20 10:01:26;;;;;;;25.90;18.87;;;;;;;-0.47;100.00;97545.28;5025373;28;20489;-74
2022/12/20 10:04:06;;;;;;;25.90;20.07;;;;;;;-0.37;100.00;97530.69;5026100;28;20246;-74
2022/12/20 10:06:46;;;;;;;26.80;19.63;;;;;;;-0.34;100.00;97519.25;5016207;28;20215;-73
2022/12/20 10:09:28;;;;;;;25.47;18.67;;;;;;;-0.50;100.00;97516.88;5028090;28;20485;-75
2022/12/20 10:12:03;;;;;;;25.03;19.70;;;;;;;-0.47;100.00;97519.25;5027620;28;20460;-75
2022/12/20 10:14:44;;;;;;;22.73;19.27;;;;;;;-0.53;100.00;97517.09;4983547;28;20226;-73
2022/12/20 10:17:17;;;;;;;25.30;19.60;;;;;;;-0.41;100.00;97515.38;5027905;28;20203;-75
2022/12/20 10:20:03;;;;;;;27.50;20.20;;;;;;;-0.54;100.00;97510.22;5023110;28;20856;-72
2022/12/20 10:22:35;;;;;;;29.30;21.07;;;;;;;-0.68;100.00;97506.78;5016822;28;20301;-73
2022/12/20 10:25:14;;;;;;;25.47;19.93;;;;;;;-0.74;100.00;97518.44;5026511;28;20223;-74
2022/12/20 10:27:42;;;;;;;29.67;20.80;;;;;;;-0.74;100.00;97512.41;4980722;28;20210;-71
2022/12/20 10:30:14;;;;;;;29.60;21.77;;;;;;;-0.46;100.00;97497.50;5029270;28;20314;-74
2022/12/20 10:32:45;;;;;;;26.90;20.73;;;;;;;-0.43;100.00;97510.28;5023681;28;20524;-73
2022/12/20 10:35:24;;;;;;;26.67;20.07;;;;;;;-0.39;100.00;97521.31;5027890;28;20215;-74
2022/12/20 10:38:02;;;;;;;26.87;20.13;;;;;;;-0.25;100.00;97504.72;5004076;28;20710;-74
2022/12/20 10:40:36;;;;;;;26.50;20.33;;;;;;;-0.07;100.00;97499.97;5024253;28;20639;-72
2022/12/20 10:43:24;;;;;;;27.10;20.53;;;;;;;-0.19;100.00;97499.06;5023018;28;20227;-73
2022/12/20 10:45:58;;;;;;;26.03;20.77;;;;;;;-0.04;100.00;97478.91;4995781;28;20216;-75
2022/12/20 10:48:32;;;;;;;26.90;19.27;;;;;;;-0.26;100.00;97482.22;5027591;28;20208;-74
2022/12/20 10:51:02;;;;;;;28.00;20.53;;;;;;;-0.20;100.00;97482.63;5028286;28;20324;-75
2022/12/20 10:53:30;;;;;;;31.90;22.70;;;;;;;-0.38;100.00;97478.72;5007975;28;20814;-74
2022/12/20 10:56:13;;;;;;;27.80;20.37;;;;;;;-0.21;100.00;97456.69;5027308;28;20227;-72
2022/12/20 10:58:41;;;;;;;28.43;20.83;;;;;;;-0.35;100.00;97461.09;5025785;28;20302;-73
2022/12/20 11:01:14;;;;;;;25.97;20.50;;;;;;;-0.22;100.00;97455.88;4986090;28;20230;-75
2022/12/20 11:03:58;;;;;;;26.37;20.10;;;;;;;-0.32;100.00;97447.88;5025462;28;20227;-72
2022/12/20 11:06:29;;;;;;;25.73;19.40;;;;;;;-0.18;100.00;97439.06;5026360;28;20958;-72
2022/12/20 11:09:23;;;;;;;26.57;20.07;;;;;;;-0.03;100.00;97433.69;5010409;28;20813;-74
2022/12/20 11:12:01;;;;;;;25.73;19.90;;;;;;;0.14;100.00;97429.88;5028080;28;20200;-75
2022/12/20 11:14:31;;;;;;;27.60;20.17;;;;;;;0.23;100.00;97410.97;5013311;28;20230;-72
2022/12/20 11:17:17;;;;;;;26.10;20.77;;;;;;;0.35;100.00;97409.19;5030227;28;20209;-75
2022/12/20 11:20:12;;;;;;;26.17;20.37;;;;;;;0.65;100.00;97401.81;5028745;28;20298;-71
2022/12/20 11:22:47;;;;;;;24.27;18.80;;;;;;;0.89;100.00;97393.91;5023701;28;20295;-74
2022/12/20 11:25:46;;;;;;;24.00;19.00;;;;;;;0.80;100.00;97378.97;5017817;28;20226;-75
2022/12/20 11:28:37;;;;;;;25.50;19.67;;;;;;;0.52;100.00;97381.06;5032621;28;20210;-76
2022/12/20 11:31:12;;;;;;;25.47;19.57;;;;;;;0.31;100.00;97386.91;4989618;28;20208;-75
2022/12/20 11:33:49;;;;;;;24.00;19.33;;;;;;;0.25;100.00;97380.41;5029932;28;20219;-75